Flugplatz Lauterbach

Für EDFT sind keine METAR/TAF Berichte vorhanden.
Es werden die Flugwettermeldungen vom Flugplatz Fritzlar Airport in 48 km Entfernung angezeigt.

Bericht für ETHF

vom 17.09. um 13:20 UTC

Wind 15 kt aus 290° in Böen 27 kt

Sichtweite 10 km oder mehr

gering bewölkt in 4700 ft

aufgebrochene Bewölkung in 34000 ft

Temperatur 18.0°C

Taupunkt 5.0°C

Luftfeuchtigkeit 42%

Luftdruck 1018 hPa

ETHF 171320Z 29015G27KT 9999 FEW047 BKN340 18/05 Q1018 BLU+BLU+ TEMPO BLU

Prognose für ETHF

vom 17.09. um 00:00 UTC

Zwischen 00:00 UTC und 00:00 UTC

Wind 10 kt aus 300°

Sichtweite 10 km oder mehr

keine signifikanten Wettererscheinungen

gering bewölkt in 5000 ft

aufgebrochene Bewölkung in 33000 ft


Zwischen 00:00 UTC und 00:00 UTC zeitweise

Wind 15 kt aus 300° in Böen 25 kt

Sichtweite 10 km oder mehr

keine signifikanten Wettererscheinungen

aufgebrochene Bewölkung in 4000 ft

aufgebrochene Bewölkung in 30000 ft

TAF ETHF 171303Z 1714/1723 30010KT 9999 NSW FEW050 BKN330 TEMPO 1714/1718 30015G25KT 9999 NSW BKN040 BKN300
Impressum